createdAt,value
2022-12-26T00:09:33.812Z,29.53
2022-12-26T00:24:38.334Z,22.37
2022-12-26T00:39:42.227Z,20.10
2022-12-26T00:54:46.443Z,30.20
2022-12-26T01:09:50.731Z,22.70
2022-12-26T01:24:56.094Z,20.00
2022-12-26T01:40:00.757Z,19.50
2022-12-26T01:55:06.451Z,15.43
2022-12-26T02:10:14.391Z,14.43
2022-12-26T02:25:37.328Z,24.10
2022-12-26T02:40:49.643Z,19.33
2022-12-26T02:56:16.791Z,19.80
2022-12-26T03:11:40.623Z,21.47
2022-12-26T03:26:49.156Z,19.17
2022-12-26T03:42:20.565Z,18.17
2022-12-26T03:57:57.645Z,17.67
2022-12-26T04:13:24.264Z,24.10
2022-12-26T04:28:47.979Z,18.00
2022-12-26T04:44:09.804Z,17.67
2022-12-26T04:59:14.315Z,19.50
2022-12-26T05:14:19.149Z,20.90
2022-12-26T05:29:23.325Z,22.33
2022-12-26T05:44:27.472Z,26.73
2022-12-26T05:59:31.843Z,21.80
2022-12-26T06:14:36.061Z,18.60
2022-12-26T06:29:40.652Z,19.87
2022-12-26T06:44:45.263Z,22.87
2022-12-26T06:59:49.762Z,23.37
2022-12-26T07:14:58.050Z,26.33
2022-12-26T07:30:08.446Z,25.77
2022-12-26T07:45:12.740Z,28.50
2022-12-26T08:00:17.047Z,26.30
2022-12-26T08:15:22.224Z,27.20
2022-12-26T08:30:27.134Z,26.90
2022-12-26T08:45:31.405Z,28.07
2022-12-26T09:00:35.722Z,25.00
2022-12-26T09:15:40.601Z,29.70
2022-12-26T09:30:46.966Z,30.53
2022-12-26T09:45:56.488Z,34.17
2022-12-26T10:01:00.694Z,52.93
2022-12-26T10:16:08.363Z,47.90
2022-12-26T10:31:17.973Z,39.47
2022-12-26T10:46:39.478Z,39.60
2022-12-26T11:01:48.318Z,32.30
2022-12-26T11:16:56.414Z,32.97
2022-12-26T11:32:02.236Z,26.80
2022-12-26T11:47:09.105Z,23.63
2022-12-26T12:02:25.090Z,21.20
2022-12-26T12:17:47.503Z,16.90
2022-12-26T12:33:04.991Z,15.07
2022-12-26T12:48:18.038Z,15.77
2022-12-26T13:03:28.126Z,15.67
2022-12-26T13:18:37.283Z,9.57
2022-12-26T13:33:43.782Z,9.13
2022-12-26T13:48:57.529Z,14.20
2022-12-26T14:04:13.760Z,18.93
2022-12-26T14:19:36.651Z,21.43
2022-12-26T14:34:49.344Z,16.13
2022-12-26T14:49:53.845Z,15.10
2022-12-26T15:05:03.492Z,19.67
2022-12-26T15:20:10.847Z,29.73
2022-12-26T15:35:22.540Z,21.30
2022-12-26T15:50:30.188Z,28.77
2022-12-26T16:05:48.933Z,31.20
2022-12-26T16:21:13.986Z,31.47
2022-12-26T16:36:20.745Z,32.57
2022-12-26T16:51:47.850Z,32.63
2022-12-26T17:06:54.300Z,34.70
2022-12-26T17:22:24.511Z,45.47
2022-12-26T17:37:29.465Z,21.40
2022-12-26T17:52:34.501Z,23.37
2022-12-26T18:07:39.038Z,19.53
2022-12-26T18:22:43.887Z,30.90
2022-12-26T18:37:50.130Z,26.47
2022-12-26T18:52:57.059Z,32.40
2022-12-26T19:08:02.654Z,24.30
2022-12-26T19:23:07.044Z,27.20
2022-12-26T19:38:14.474Z,33.47
2022-12-26T19:53:18.798Z,41.40
2022-12-26T20:08:23.068Z,26.03
2022-12-26T20:23:27.312Z,29.07
2022-12-26T20:38:31.599Z,37.20
2022-12-26T20:53:36.124Z,39.03
2022-12-26T21:08:41.223Z,39.83
2022-12-26T21:23:45.680Z,45.80
2022-12-26T21:38:49.501Z,60.70
2022-12-26T21:54:14.064Z,46.07
2022-12-26T22:09:18.773Z,49.50
2022-12-26T22:24:23.164Z,53.20
2022-12-26T22:39:27.438Z,48.20
2022-12-26T22:54:31.635Z,45.50
2022-12-26T23:09:36.004Z,36.87
2022-12-26T23:24:40.200Z,30.47
2022-12-26T23:39:44.351Z,30.70
2022-12-26T23:54:48.518Z,29.20
